Time;durP1;ratioP1;P1;durP2;ratioP2;P2;SDS_P1;SDS_P2;PMS_P1;PMS_P2;Temp;Humidity;BMP_temperature;BMP_pressure;BME280_temperature;BME280_humidity;BME280_pressure;Samples;Min_cycle;Max_cycle;Signal;HPM_P1;HPM_P2
2020/12/29 00:01:59;;;;;;;4.63;1.08;;;;;;;18.33;73.73;101541.47;5050039;28;20041;-74
2020/12/29 00:04:28;;;;;;;2.60;1.08;;;;;;;18.31;73.72;101545.91;5051104;28;20527;-75
2020/12/29 00:06:53;;;;;;;3.13;1.00;;;;;;;18.32;73.59;101545.03;5049428;28;20049;-75
2020/12/29 00:09:19;;;;;;;4.50;0.90;;;;;;;18.32;73.98;101545.03;5049513;28;20047;-75
2020/12/29 00:11:44;;;;;;;1.70;0.90;;;;;;;18.31;74.03;101551.25;5049021;28;20683;-75
2020/12/29 00:14:10;;;;;;;24.92;1.30;;;;;;;18.30;73.83;101543.28;5049461;28;20051;-76
2020/12/29 00:16:35;;;;;;;5.75;1.00;;;;;;;18.33;73.76;101545.91;5048458;28;20057;-76
2020/12/29 00:19:00;;;;;;;6.18;1.00;;;;;;;18.35;74.06;101551.25;5049949;28;20132;-76
2020/12/29 00:21:26;;;;;;;5.70;1.20;;;;;;;18.36;73.76;101547.69;5049491;28;20057;-76
2020/12/29 00:23:51;;;;;;;5.55;1.00;;;;;;;18.35;73.96;101553.94;5050104;28;20128;-76
2020/12/29 00:26:17;;;;;;;3.88;1.20;;;;;;;18.36;73.87;101551.25;5050520;28;20084;-76
2020/12/29 00:28:42;;;;;;;2.92;0.93;;;;;;;18.33;73.52;101559.28;5050601;28;20063;-76
2020/12/29 00:31:08;;;;;;;3.28;1.02;;;;;;;18.32;73.62;101568.19;5049951;28;20033;-77
2020/12/29 00:33:33;;;;;;;2.10;0.88;;;;;;;18.30;73.81;101576.25;5049925;28;20110;-77
2020/12/29 00:35:59;;;;;;;2.38;1.00;;;;;;;18.28;74.22;101578.03;5050271;28;20041;-76
2020/12/29 00:38:24;;;;;;;2.63;0.70;;;;;;;18.25;73.89;101582.47;5049772;28;20040;-77
2020/12/29 00:40:50;;;;;;;2.25;1.00;;;;;;;18.25;74.07;101580.69;5049870;28;20048;-77
2020/12/29 00:43:15;;;;;;;1.98;0.80;;;;;;;18.25;74.26;101583.34;5050274;28;20045;-77
2020/12/29 00:45:41;;;;;;;2.63;0.90;;;;;;;18.25;73.43;101583.34;5049613;28;20049;-77
2020/12/29 00:48:06;;;;;;;3.15;0.90;;;;;;;18.24;74.22;101581.59;5050635;28;20036;-78
2020/12/29 00:50:32;;;;;;;2.85;0.90;;;;;;;18.24;73.59;101586.06;5049601;28;20044;-77
2020/12/29 00:52:57;;;;;;;4.63;0.82;;;;;;;18.20;74.18;101582.50;5050108;28;20040;-77
2020/12/29 00:55:23;;;;;;;32.40;1.33;;;;;;;18.31;74.16;101588.69;5049723;28;20047;-76
2020/12/29 00:57:48;;;;;;;26.25;1.52;;;;;;;18.36;73.74;101575.31;5048852;28;20124;-75
2020/12/29 01:00:14;;;;;;;6.22;0.80;;;;;;;18.30;73.76;101575.34;5049439;28;20033;-73
2020/12/29 01:02:39;;;;;;;6.68;0.80;;;;;;;18.31;73.47;101578.00;5050277;28;20044;-75
2020/12/29 01:05:04;;;;;;;6.75;1.30;;;;;;;18.37;73.37;101586.91;5049469;28;20045;-75
2020/12/29 01:07:30;;;;;;;6.30;0.73;;;;;;;18.26;73.48;101587.81;5047598;28;20131;-75
2020/12/29 01:09:56;;;;;;;3.90;0.90;;;;;;;18.21;74.15;101588.72;5049389;28;20497;-74
2020/12/29 01:12:21;;;;;;;4.43;1.27;;;;;;;18.21;73.71;101586.06;5049437;28;20072;-76
2020/12/29 01:14:46;;;;;;;8.30;0.73;;;;;;;18.23;73.58;101586.94;5049084;28;20048;-75
2020/12/29 01:17:12;;;;;;;3.05;0.80;;;;;;;18.21;73.63;101584.28;5048886;28;20033;-75
2020/12/29 01:19:37;;;;;;;13.32;1.00;;;;;;;18.19;73.95;101586.06;5048284;28;20048;-74
2020/12/29 01:22:03;;;;;;;3.35;0.80;;;;;;;18.22;74.11;101585.16;5048918;28;20041;-73
2020/12/29 01:24:28;;;;;;;4.68;1.00;;;;;;;18.18;73.85;101580.72;5048493;28;20138;-73
2020/12/29 01:26:54;;;;;;;10.38;0.90;;;;;;;18.19;74.11;101590.50;5048698;28;20041;-74
2020/12/29 01:29:19;;;;;;;13.68;1.10;;;;;;;18.19;73.93;101570.00;5048880;28;20040;-73
2020/12/29 01:31:45;;;;;;;10.82;0.73;;;;;;;18.20;74.11;101578.94;5048247;28;20045;-75
2020/12/29 01:34:10;;;;;;;7.63;0.90;;;;;;;18.19;74.05;101575.34;5048730;28;20048;-75
2020/12/29 01:36:36;;;;;;;7.43;0.90;;;;;;;18.21;73.75;101568.25;5048594;28;20057;-75
2020/12/29 01:39:01;;;;;;;4.97;0.73;;;;;;;18.23;73.67;101569.13;5048922;28;20045;-76
2020/12/29 01:41:27;;;;;;;2.75;0.88;;;;;;;18.22;73.49;101575.38;5048554;28;20116;-75
2020/12/29 01:43:52;;;;;;;4.03;0.80;;;;;;;18.20;73.96;101566.44;5048245;28;20056;-75
2020/12/29 01:46:18;;;;;;;5.40;0.93;;;;;;;18.17;73.46;101574.50;5048689;28;20051;-75
2020/12/29 01:48:43;;;;;;;8.35;0.88;;;;;;;18.19;73.87;101567.34;5049769;28;20075;-75
2020/12/29 01:51:08;;;;;;;3.13;1.00;;;;;;;18.18;73.52;101568.22;5048620;28;20581;-75
2020/12/29 01:53:38;;;;;;;1.00;0.60;;;;;;;18.17;73.63;101563.81;5048624;28;20037;-75
2020/12/29 01:56:04;;;;;;;4.95;0.90;;;;;;;18.16;73.41;101556.69;5049090;28;20083;-75
2020/12/29 01:58:29;;;;;;;4.10;1.10;;;;;;;18.17;73.38;101569.16;5048358;28;20068;-75
2020/12/29 02:00:55;;;;;;;2.28;0.73;;;;;;;18.17;73.30;101561.13;5048368;28;20037;-75
2020/12/29 02:03:20;;;;;;;2.80;0.80;;;;;;;18.15;73.94;101559.34;5048652;28;20041;-73
2020/12/29 02:05:46;;;;;;;3.97;0.80;;;;;;;18.17;73.28;101560.25;5048227;28;20087;-73
2020/12/29 02:08:11;;;;;;;2.15;0.55;;;;;;;18.17;73.29;101563.81;5048079;28;20049;-74
2020/12/29 02:10:37;;;;;;;1.90;0.80;;;;;;;18.20;73.17;101561.09;5047563;28;20045;-74
2020/12/29 02:13:02;;;;;;;2.65;0.80;;;;;;;18.16;73.57;101564.69;5049041;28;20025;-76
2020/12/29 02:15:28;;;;;;;2.42;0.80;;;;;;;18.14;73.82;101563.81;5047694;28;20049;-76
2020/12/29 02:17:53;;;;;;;4.25;1.00;;;;;;;18.15;73.94;101565.59;5048827;28;20493;-76
2020/12/29 02:20:19;;;;;;;1.13;0.73;;;;;;;18.14;73.22;101566.47;5048458;28;20037;-76
2020/12/29 02:22:44;;;;;;;3.03;0.80;;;;;;;18.15;73.58;101554.00;5049392;28;20049;-76
2020/12/29 02:25:10;;;;;;;1.92;0.70;;;;;;;18.15;73.86;101557.56;5048681;28;20037;-76
2020/12/29 02:27:35;;;;;;;2.70;0.80;;;;;;;18.18;73.15;101549.53;5048395;28;20055;-76
2020/12/29 02:30:01;;;;;;;1.08;0.65;;;;;;;18.19;73.73;101551.31;5048109;28;20053;-76
2020/12/29 02:32:26;;;;;;;1.02;0.60;;;;;;;18.15;73.86;101560.25;5047895;28;20041;-75
2020/12/29 02:34:52;;;;;;;1.02;0.70;;;;;;;18.14;73.72;101558.44;5048205;28;20033;-74
2020/12/29 02:37:17;;;;;;;3.17;0.70;;;;;;;18.13;73.49;101561.13;5047990;28;20037;-75
2020/12/29 02:39:43;;;;;;;1.30;0.60;;;;;;;18.17;73.32;101560.25;5048667;28;20134;-76
2020/12/29 02:42:08;;;;;;;1.63;0.70;;;;;;;18.12;73.73;101552.22;5051928;28;20044;-75
2020/12/29 02:44:34;;;;;;;1.17;0.70;;;;;;;18.13;73.98;101555.78;5051829;28;20037;-76
2020/12/29 02:46:59;;;;;;;0.90;0.65;;;;;;;18.10;73.40;101550.47;5052145;28;20041;-76
2020/12/29 02:49:24;;;;;;;2.25;0.88;;;;;;;18.11;73.49;101547.78;5051662;28;20065;-76
2020/12/29 02:51:50;;;;;;;2.53;0.80;;;;;;;18.07;73.79;101551.34;5051986;28;20064;-76
2020/12/29 02:54:15;;;;;;;19.00;1.17;;;;;;;18.12;73.82;101551.31;5050594;28;20041;-77
2020/12/29 02:56:41;;;;;;;2.53;0.75;;;;;;;18.14;73.64;101547.75;5051692;28;20094;-77
2020/12/29 02:59:06;;;;;;;6.07;0.80;;;;;;;18.11;74.02;101552.25;5052391;28;20048;-77
2020/12/29 03:01:32;;;;;;;5.03;0.60;;;;;;;18.09;73.59;101548.66;5051487;28;20305;-77
2020/12/29 03:03:57;;;;;;;0.80;0.65;;;;;;;18.09;73.52;101544.22;5052405;28;20055;-77
2020/12/29 03:06:23;;;;;;;1.38;0.77;;;;;;;18.06;73.82;101549.56;5051494;28;20048;-77
2020/12/29 03:08:48;;;;;;;1.05;0.60;;;;;;;18.05;73.37;101550.44;5051542;28;20374;-77
2020/12/29 03:11:14;;;;;;;2.40;0.60;;;;;;;18.06;73.89;101559.34;5052045;28;20044;-77
2020/12/29 03:13:39;;;;;;;2.10;0.50;;;;;;;18.05;73.99;101553.13;5050745;28;20053;-77
2020/12/29 03:16:05;;;;;;;0.90;0.60;;;;;;;18.04;73.87;101551.38;5051029;28;20045;-77
2020/12/29 03:18:30;;;;;;;1.38;0.60;;;;;;;18.04;73.81;101561.16;5051362;28;20044;-77
2020/12/29 03:20:56;;;;;;;1.40;0.70;;;;;;;18.08;73.71;101553.13;5051877;28;20037;-78
2020/12/29 03:23:21;;;;;;;2.10;0.55;;;;;;;18.02;74.12;101560.25;5051794;28;20036;-77
2020/12/29 03:25:47;;;;;;;0.95;0.50;;;;;;;18.05;73.73;101557.59;5052221;28;20141;-76
2020/12/29 03:28:12;;;;;;;2.97;0.80;;;;;;;18.03;73.64;101560.28;5052229;28;20069;-81
2020/12/29 03:30:38;;;;;;;1.63;0.60;;;;;;;18.06;73.43;101565.59;5051754;28;20036;-79
2020/12/29 03:33:03;;;;;;;0.63;0.50;;;;;;;18.03;73.62;101578.97;5051985;28;20405;-79
2020/12/29 03:35:29;;;;;;;1.40;0.50;;;;;;;18.04;73.68;101583.44;5051226;28;20041;-80
2020/12/29 03:37:54;;;;;;;13.23;0.80;;;;;;;18.07;73.99;101582.50;5050761;28;20048;-77
2020/12/29 03:40:20;;;;;;;4.90;0.70;;;;;;;18.10;73.60;101586.09;5050808;28;20033;-76
2020/12/29 03:42:45;;;;;;;9.13;0.70;;;;;;;18.11;73.43;101587.88;5050739;28;20486;-77
2020/12/29 03:45:11;;;;;;;2.30;0.60;;;;;;;18.12;73.92;101591.41;5051458;28;20033;-77
2020/12/29 03:47:36;;;;;;;10.10;0.90;;;;;;;18.13;73.26;101595.88;5050325;28;20055;-76
2020/12/29 03:50:02;;;;;;;1.60;0.60;;;;;;;18.12;73.78;101604.78;5050252;28;20037;-76
2020/12/29 03:52:27;;;;;;;2.85;0.80;;;;;;;18.11;73.07;101622.63;5051003;28;20079;-76
2020/12/29 03:54:52;;;;;;;8.63;0.57;;;;;;;18.09;73.39;101613.69;5052016;28;20041;-76
2020/12/29 03:57:18;;;;;;;1.65;0.50;;;;;;;18.08;73.37;101605.69;5050474;28;20052;-76
2020/12/29 03:59:43;;;;;;;3.65;0.50;;;;;;;18.06;73.34;101608.34;5051784;28;20033;-76
2020/12/29 04:02:09;;;;;;;3.70;0.55;;;;;;;18.07;73.22;101614.59;5051845;28;20041;-78
2020/12/29 04:04:35;;;;;;;3.05;0.60;;;;;;;18.05;73.69;101613.72;5050866;28;20037;-77
2020/12/29 04:07:00;;;;;;;0.80;0.60;;;;;;;18.08;72.89;101617.25;5051918;28;20037;-75
2020/12/29 04:09:25;;;;;;;3.88;0.50;;;;;;;18.09;73.42;101612.81;5051823;28;20039;-77
2020/12/29 04:11:51;;;;;;;1.63;0.70;;;;;;;18.06;73.07;101616.38;5051625;28;20060;-77
2020/12/29 04:14:16;;;;;;;17.58;0.80;;;;;;;18.07;73.23;101615.47;5051313;28;20394;-76
2020/12/29 04:16:41;;;;;;;10.90;0.43;;;;;;;18.07;73.22;101615.47;5050020;28;20520;-77
2020/12/29 04:19:07;;;;;;;4.07;0.47;;;;;;;18.06;73.51;101624.38;5050795;28;20448;-76
2020/12/29 04:21:32;;;;;;;3.05;0.40;;;;;;;18.07;73.05;101618.16;5049966;28;20041;-77
2020/12/29 04:23:57;;;;;;;1.95;0.50;;;;;;;18.07;73.20;101618.16;5050660;28;20036;-76
2020/12/29 04:26:23;;;;;;;1.88;0.60;;;;;;;18.03;73.10;101611.03;5050124;28;20041;-76
2020/12/29 04:28:48;;;;;;;1.52;0.50;;;;;;;18.00;73.64;101624.38;5050157;28;20036;-76
2020/12/29 04:31:13;;;;;;;4.55;0.50;;;;;;;18.03;73.20;101627.06;5050586;28;20125;-77
2020/12/29 04:33:39;;;;;;;5.10;0.50;;;;;;;18.06;73.22;101619.03;5050554;28;20067;-77
2020/12/29 04:36:04;;;;;;;0.77;0.40;;;;;;;18.04;73.75;101627.97;5050218;28;20041;-76
2020/12/29 04:38:29;;;;;;;0.60;0.40;;;;;;;18.01;73.11;101634.19;5044355;28;20122;-76
2020/12/29 04:40:55;;;;;;;2.35;0.50;;;;;;;18.01;73.08;101636.88;5051780;28;20040;-76
2020/12/29 04:43:20;;;;;;;3.20;0.40;;;;;;;18.00;73.43;101632.41;5050813;28;20041;-76
2020/12/29 04:45:45;;;;;;;0.60;0.30;;;;;;;17.99;73.63;101638.63;5049898;28;20048;-76
2020/12/29 04:48:11;;;;;;;1.38;0.50;;;;;;;18.01;73.42;101641.31;5051374;28;20021;-77
2020/12/29 04:50:36;;;;;;;3.70;0.40;;;;;;;17.97;73.09;101648.47;5051175;28;20072;-76
2020/12/29 04:53:01;;;;;;;3.65;0.40;;;;;;;18.00;73.29;101651.13;5051433;28;20133;-77
2020/12/29 04:55:27;;;;;;;1.45;0.60;;;;;;;17.95;73.28;101652.00;5050036;28;20163;-76
2020/12/29 04:57:52;;;;;;;1.38;0.40;;;;;;;18.02;73.36;101657.34;5050785;28;20531;-76
2020/12/29 05:00:17;;;;;;;1.65;0.50;;;;;;;17.98;73.53;101658.25;5050297;28;20060;-77
2020/12/29 05:02:43;;;;;;;0.65;0.35;;;;;;;17.97;73.46;101664.50;5050754;28;20052;-76
2020/12/29 05:05:08;;;;;;;2.90;0.30;;;;;;;18.02;73.50;101664.47;5050256;28;20041;-77
2020/12/29 05:07:33;;;;;;;1.90;0.60;;;;;;;18.03;73.28;101666.28;5050299;28;20037;-75
2020/12/29 05:09:59;;;;;;;1.48;0.50;;;;;;;18.03;73.51;101667.16;5050375;28;20037;-75
2020/12/29 05:12:24;;;;;;;1.17;0.47;;;;;;;18.03;73.55;101676.97;5049373;28;20060;-75
2020/12/29 05:14:49;;;;;;;1.55;0.40;;;;;;;18.04;72.92;101676.06;5047422;28;20132;-75
2020/12/29 05:17:15;;;;;;;1.02;0.40;;;;;;;18.04;72.92;101670.72;5049217;28;20120;-75
2020/12/29 05:19:40;;;;;;;0.30;0.30;;;;;;;18.05;72.75;101680.53;5049265;28;20068;-75
2020/12/29 05:22:05;;;;;;;4.10;0.30;;;;;;;18.01;72.89;101682.28;5050181;28;20116;-75
2020/12/29 05:24:31;;;;;;;0.82;0.40;;;;;;;18.00;73.21;101680.50;5049535;28;20082;-76
2020/12/29 05:26:56;;;;;;;0.95;0.45;;;;;;;18.01;72.96;101687.63;5049265;28;20029;-74
2020/12/29 05:29:21;;;;;;;4.22;0.55;;;;;;;17.98;73.42;101687.66;5049068;28;20041;-75
2020/12/29 05:31:47;;;;;;;0.70;0.40;;;;;;;18.01;72.96;101687.63;5049760;28;20043;-75
2020/12/29 05:34:12;;;;;;;1.10;0.43;;;;;;;17.94;73.45;101693.88;5050367;28;20136;-74
2020/12/29 05:36:37;;;;;;;1.35;0.40;;;;;;;17.97;73.04;101693.88;5048003;28;20120;-74
2020/12/29 05:39:03;;;;;;;2.10;0.30;;;;;;;18.00;72.74;101692.97;5049026;28;20140;-75
2020/12/29 05:41:28;;;;;;;0.40;0.30;;;;;;;18.00;72.95;101699.22;5048742;28;20063;-74
2020/12/29 05:43:53;;;;;;;4.97;0.55;;;;;;;18.01;73.42;101692.97;5048929;28;20040;-75
2020/12/29 05:46:19;;;;;;;0.80;0.40;;;;;;;18.01;73.09;101686.75;5050150;28;20125;-75
2020/12/29 05:48:44;;;;;;;2.33;0.50;;;;;;;17.95;72.89;101690.31;5049709;28;20052;-75
2020/12/29 05:51:09;;;;;;;3.50;0.57;;;;;;;17.91;73.50;101688.53;5049777;28;20037;-75
2020/12/29 05:53:35;;;;;;;1.15;0.50;;;;;;;17.89;73.05;101696.53;5047930;28;20049;-75
2020/12/29 05:56:00;;;;;;;4.05;0.57;;;;;;;17.87;73.44;101701.00;5048557;28;20106;-75
2020/12/29 05:58:25;;;;;;;1.15;0.55;;;;;;;17.90;73.33;101703.69;5048587;28;20039;-76
2020/12/29 06:00:50;;;;;;;0.70;0.40;;;;;;;17.88;73.44;101716.13;5050411;28;20064;-75
2020/12/29 06:03:16;;;;;;;2.40;0.52;;;;;;;17.89;73.45;101712.56;5049383;28;20073;-73
2020/12/29 06:05:41;;;;;;;1.00;0.63;;;;;;;17.94;73.28;101712.56;5049598;28;20045;-73
2020/12/29 06:08:06;;;;;;;2.40;0.50;;;;;;;17.91;73.43;101708.13;5048303;28;20269;-73
2020/12/29 06:10:32;;;;;;;0.50;0.40;;;;;;;17.93;73.48;101706.34;5048421;28;20445;-74
2020/12/29 06:12:57;;;;;;;1.20;0.70;;;;;;;17.92;73.12;101714.34;5049896;28;20041;-73
2020/12/29 06:15:22;;;;;;;3.15;0.60;;;;;;;17.92;72.89;101709.00;5051503;28;20045;-74
2020/12/29 06:17:48;;;;;;;2.78;0.63;;;;;;;17.91;73.36;101707.25;5050849;28;20548;-74
2020/12/29 06:20:13;;;;;;;0.55;0.45;;;;;;;17.91;73.18;101710.81;5052208;28;20033;-75
2020/12/29 06:22:39;;;;;;;1.48;0.65;;;;;;;17.90;73.04;101700.13;5052960;28;20045;-74
2020/12/29 06:25:06;;;;;;;1.42;0.70;;;;;;;17.88;73.01;101699.22;5052688;28;20634;-74
2020/12/29 06:27:32;;;;;;;2.80;0.80;;;;;;;17.87;72.94;101703.66;5051370;28;20048;-75
2020/12/29 06:29:57;;;;;;;1.00;0.60;;;;;;;17.95;72.91;101702.78;5052288;28;20555;-74
2020/12/29 06:32:23;;;;;;;4.40;0.90;;;;;;;17.91;72.74;101715.25;5050833;28;20037;-74
2020/12/29 06:34:48;;;;;;;2.47;0.70;;;;;;;17.89;72.70;101709.00;5052523;28;20144;-74
2020/12/29 06:37:14;;;;;;;0.93;0.70;;;;;;;17.92;73.28;101709.00;5052074;28;20033;-74
2020/12/29 06:39:39;;;;;;;1.65;0.70;;;;;;;17.92;72.52;101719.69;5051048;28;20127;-74
2020/12/29 06:42:05;;;;;;;1.48;0.70;;;;;;;17.95;73.05;101709.00;5051289;28;20060;-75
2020/12/29 06:44:30;;;;;;;13.25;0.80;;;;;;;18.06;72.41;101703.66;5051898;28;20128;-82
2020/12/29 06:46:56;;;;;;;18.45;0.90;;;;;;;18.02;72.75;101710.81;5052789;28;20067;-78
2020/12/29 06:49:22;;;;;;;18.38;0.80;;;;;;;17.99;72.47;101710.78;5053083;28;20198;-82
2020/12/29 06:51:47;;;;;;;21.05;1.50;;;;;;;18.02;72.29;101709.91;5051768;28;20781;-75
2020/12/29 06:54:13;;;;;;;23.10;1.67;;;;;;;18.06;72.78;101711.69;5044553;28;20041;-76
2020/12/29 06:56:38;;;;;;;18.67;1.10;;;;;;;18.00;73.61;101714.34;5051344;28;20120;-75
2020/12/29 06:59:04;;;;;;;20.33;1.60;;;;;;;18.01;73.73;101713.47;5049782;28;20029;-76
2020/12/29 07:01:29;;;;;;;23.98;1.30;;;;;;;18.02;72.90;101716.16;5041470;28;20489;-75
2020/12/29 07:03:55;;;;;;;13.20;1.40;;;;;;;18.01;73.23;101711.69;5044834;28;20033;-76
2020/12/29 07:06:20;;;;;;;6.57;0.88;;;;;;;18.00;73.09;101720.59;5046213;28;20109;-77
2020/12/29 07:08:46;;;;;;;1.88;1.00;;;;;;;18.04;73.02;101721.50;5044572;28;20033;-76
2020/12/29 07:11:11;;;;;;;4.38;0.70;;;;;;;18.03;73.38;101727.72;5050742;28;20561;-76
2020/12/29 07:13:37;;;;;;;5.35;1.02;;;;;;;18.04;73.65;101729.50;5051503;28;20045;-76
2020/12/29 07:16:02;;;;;;;10.45;0.90;;;;;;;18.01;72.83;101730.38;5049838;28;20059;-75
2020/12/29 07:18:28;;;;;;;3.60;0.70;;;;;;;18.05;72.74;101728.63;5049813;28;20051;-76
2020/12/29 07:20:53;;;;;;;2.03;0.80;;;;;;;18.03;72.75;101731.28;5046656;28;20034;-76
2020/12/29 07:23:19;;;;;;;9.77;1.13;;;;;;;18.00;72.76;101736.63;5045540;28;20048;-76
2020/12/29 07:25:44;;;;;;;2.90;0.70;;;;;;;18.05;72.82;101734.84;5045082;28;20056;-79
2020/12/29 07:28:09;;;;;;;16.58;0.90;;;;;;;18.17;72.61;101736.66;5052799;28;20075;-78
2020/12/29 07:30:35;;;;;;;3.17;1.10;;;;;;;18.09;72.74;101741.97;5047112;28;20033;-76
2020/12/29 07:33:01;;;;;;;1.80;0.90;;;;;;;18.06;72.75;101739.28;5035496;28;20038;-78
2020/12/29 07:35:26;;;;;;;7.85;1.00;;;;;;;18.03;73.13;101736.63;5050006;28;20060;-78
2020/12/29 07:37:52;;;;;;;3.72;0.90;;;;;;;18.02;73.11;101734.84;5050886;28;20051;-77
2020/12/29 07:40:17;;;;;;;0.85;0.70;;;;;;;18.04;72.97;101734.84;5033799;28;20045;-77
2020/12/29 07:42:43;;;;;;;9.70;1.02;;;;;;;18.02;73.06;101740.19;5033996;28;20084;-77
2020/12/29 07:45:08;;;;;;;6.28;0.82;;;;;;;18.05;72.76;101737.50;5058342;28;20062;-81
2020/12/29 07:47:34;;;;;;;34.78;1.90;;;;;;;18.10;72.65;101749.13;5049072;28;20057;-78
2020/12/29 07:49:59;;;;;;;5.03;0.82;;;;;;;18.04;72.95;101745.56;5049389;28;20044;-80
2020/12/29 07:52:25;;;;;;;9.52;1.38;;;;;;;18.10;72.49;101750.91;5041537;28;20072;-78
2020/12/29 07:54:50;;;;;;;33.38;1.20;;;;;;;18.30;72.32;101751.78;5050645;28;20052;-81
2020/12/29 07:57:16;;;;;;;39.10;1.73;;;;;;;18.34;72.53;101753.56;5051496;28;20409;-77
2020/12/29 07:59:41;;;;;;;15.55;1.20;;;;;;;18.21;72.16;101751.78;5050343;28;20128;-79
2020/12/29 08:02:07;;;;;;;8.73;1.20;;;;;;;18.13;72.24;101757.13;5049300;28;20053;-77
2020/12/29 08:04:33;;;;;;;81.47;2.47;;;;;;;18.25;74.20;101757.13;5050344;28;20037;-76
2020/12/29 08:06:58;;;;;;;37.00;1.70;;;;;;;18.35;73.67;101749.09;5051203;28;20057;-74
2020/12/29 08:09:24;;;;;;;58.35;2.10;;;;;;;18.32;73.62;101745.53;5050150;28;20544;-75
2020/12/29 08:11:49;;;;;;;61.78;1.92;;;;;;;18.26;73.88;101744.66;5048894;28;20116;-78
2020/12/29 08:14:15;;;;;;;65.82;2.17;;;;;;;18.29;72.90;101742.00;5049872;28;20493;-78
2020/12/29 08:16:40;;;;;;;63.83;4.80;;;;;;;18.37;73.09;101745.56;5049566;28;20406;-75
2020/12/29 08:19:11;;;;;;;62.83;2.72;;;;;;;18.28;73.11;101743.75;5051551;28;20037;-79
2020/12/29 08:21:37;;;;;;;56.28;2.65;;;;;;;18.21;73.03;101733.06;5049782;28;20145;-79
2020/12/29 08:24:02;;;;;;;51.92;2.35;;;;;;;18.15;73.03;101733.97;5050803;28;20139;-79
2020/12/29 08:26:28;;;;;;;23.30;2.20;;;;;;;18.12;73.03;101736.63;5049555;28;20044;-77
2020/12/29 08:28:55;;;;;;;24.98;1.60;;;;;;;18.14;73.10;101733.97;5050710;28;20041;-77
2020/12/29 08:31:20;;;;;;;25.35;1.70;;;;;;;18.09;72.70;101727.72;5049656;28;20037;-77
2020/12/29 08:33:47;;;;;;;16.25;1.60;;;;;;;18.10;72.56;101732.19;5048950;28;20044;-75
2020/12/29 08:36:12;;;;;;;21.67;1.48;;;;;;;18.10;72.81;101730.41;5050231;28;20047;-76
2020/12/29 08:38:37;;;;;;;19.88;1.75;;;;;;;18.08;72.67;101731.28;5048230;28;20044;-75
2020/12/29 08:41:03;;;;;;;21.35;1.52;;;;;;;18.08;72.20;101726.84;5049186;28;20112;-75
2020/12/29 08:43:28;;;;;;;18.02;1.63;;;;;;;18.03;72.28;101720.59;5030072;28;20505;-75
2020/12/29 08:45:54;;;;;;;14.40;1.52;;;;;;;18.05;72.16;101717.94;5046414;28;20453;-75
2020/12/29 08:48:19;;;;;;;9.88;1.42;;;;;;;18.03;72.70;101720.59;5037742;28;20040;-74
2020/12/29 08:50:44;;;;;;;22.17;1.50;;;;;;;18.08;72.04;101709.91;5051400;28;20091;-79
2020/12/29 08:53:10;;;;;;;12.07;1.65;;;;;;;18.08;71.79;101705.44;5040482;28;20040;-87
2020/12/29 08:55:35;;;;;;;10.02;1.77;;;;;;;18.07;72.11;101701.00;5031547;28;20043;-87
2020/12/29 08:58:00;;;;;;;21.15;2.10;;;;;;;18.04;71.88;101701.00;5050263;28;20048;-76
2020/12/29 09:00:26;;;;;;;10.55;2.08;;;;;;;18.02;71.58;101702.78;5035409;28;20076;-75
2020/12/29 09:02:51;;;;;;;11.35;2.00;;;;;;;18.02;71.34;101702.78;5048648;28;20094;-76
2020/12/29 09:05:17;;;;;;;7.15;2.00;;;;;;;18.02;71.10;101694.75;5037739;28;20107;-70
2020/12/29 09:07:42;;;;;;;11.40;2.42;;;;;;;18.02;70.91;101701.88;5060866;28;20095;-84
2020/12/29 09:10:07;;;;;;;12.57;2.42;;;;;;;18.03;71.34;101677.84;5051004;28;20045;-83
2020/12/29 09:12:33;;;;;;;8.35;2.20;;;;;;;18.03;70.78;101682.31;5035129;28;20042;-85
2020/12/29 09:14:58;;;;;;;9.93;3.15;;;;;;;18.03;70.67;101679.63;5049768;28;20049;-84
2020/12/29 09:17:23;;;;;;;15.15;2.97;;;;;;;17.99;70.55;101670.69;5032983;28;20060;-76
2020/12/29 09:19:49;;;;;;;13.98;2.97;;;;;;;17.98;70.98;101676.06;5047160;28;20512;-77
2020/12/29 09:22:14;;;;;;;9.93;2.72;;;;;;;17.99;70.43;101667.13;5063025;28;20081;-77
2020/12/29 09:24:39;;;;;;;9.48;3.58;;;;;;;17.99;70.10;101667.13;5048724;28;20483;-77
2020/12/29 09:27:05;;;;;;;10.65;2.97;;;;;;;17.99;70.72;101660.00;5049095;28;20100;-79
2020/12/29 09:29:30;;;;;;;9.55;2.50;;;;;;;18.02;69.89;101664.47;5038752;28;20046;-77
2020/12/29 09:31:56;;;;;;;7.55;2.28;;;;;;;17.98;70.56;101652.91;5047473;28;20037;-78
2020/12/29 09:34:21;;;;;;;10.32;2.53;;;;;;;18.00;70.19;101658.22;5043202;28;20124;-89
2020/12/29 09:36:46;;;;;;;8.38;2.83;;;;;;;17.96;69.95;101649.34;5058223;28;20143;-89
2020/12/29 09:39:12;;;;;;;6.60;2.15;;;;;;;17.96;69.69;101648.44;5050326;28;20033;-88
2020/12/29 09:41:37;;;;;;;6.68;2.05;;;;;;;17.96;69.97;101641.34;5050785;28;20103;-88
2020/12/29 09:44:02;;;;;;;6.03;2.08;;;;;;;17.97;69.41;101651.13;5047830;28;20049;-88
2020/12/29 09:46:28;;;;;;;16.20;2.83;;;;;;;18.00;69.34;101643.09;5049185;28;20405;-77
2020/12/29 09:48:53;;;;;;;26.02;2.55;;;;;;;18.07;69.13;101636.84;5050606;28;20179;-77
2020/12/29 09:51:18;;;;;;;17.98;2.38;;;;;;;18.07;69.00;101639.53;5033810;28;20498;-77
2020/12/29 09:53:44;;;;;;;15.27;2.95;;;;;;;18.06;69.11;101640.41;5034951;28;20455;-78
2020/12/29 09:56:09;;;;;;;19.02;2.33;;;;;;;18.02;69.52;101638.66;5059077;28;20461;-77
2020/12/29 09:58:34;;;;;;;12.60;1.90;;;;;;;18.00;68.75;101642.22;5053609;28;20051;-77
2020/12/29 10:01:00;;;;;;;6.95;2.20;;;;;;;17.98;68.88;101655.59;5051660;28;20029;-77
2020/12/29 10:03:25;;;;;;;6.68;1.83;;;;;;;17.98;68.50;101646.69;5053723;28;20486;-77
2020/12/29 10:05:50;;;;;;;7.65;2.03;;;;;;;17.98;68.66;101646.69;5036275;28;20103;-77
2020/12/29 10:08:16;;;;;;;9.15;1.95;;;;;;;17.95;68.32;101644.00;5048972;28;20037;-77
2020/12/29 10:10:41;;;;;;;4.57;1.63;;;;;;;17.96;68.48;101636.00;5068802;28;20129;-77
2020/12/29 10:13:06;;;;;;;4.82;1.58;;;;;;;17.97;68.22;101643.13;5042211;28;20384;-77
2020/12/29 10:15:32;;;;;;;9.32;1.80;;;;;;;17.95;67.84;101641.31;5068777;28;20120;-77
2020/12/29 10:17:57;;;;;;;4.07;1.55;;;;;;;17.93;67.76;101636.88;5053022;28;20087;-76
2020/12/29 10:20:22;;;;;;;6.75;1.70;;;;;;;17.92;67.56;101624.41;5052829;28;20079;-78
2020/12/29 10:22:48;;;;;;;6.68;1.90;;;;;;;17.94;67.82;101621.72;5052468;28;20048;-79
2020/12/29 10:25:16;;;;;;;9.35;2.25;;;;;;;17.95;67.58;101626.19;5052077;28;20081;-79
2020/12/29 10:27:42;;;;;;;10.63;2.15;;;;;;;17.92;67.51;101611.03;5053572;28;20433;-74
2020/12/29 10:30:07;;;;;;;6.20;1.88;;;;;;;17.95;67.63;101610.16;5053315;28;20039;-80
2020/12/29 10:32:33;;;;;;;10.30;2.33;;;;;;;17.95;67.34;101601.25;5043926;28;20045;-77
2020/12/29 10:34:58;;;;;;;12.32;2.78;;;;;;;17.96;67.64;101611.94;5064274;28;20053;-75
2020/12/29 10:37:23;;;;;;;11.75;2.53;;;;;;;17.95;67.59;101604.81;5053327;28;20409;-79
2020/12/29 10:39:49;;;;;;;9.52;2.30;;;;;;;17.96;67.63;101603.91;5053193;28;20045;-82
2020/12/29 10:42:14;;;;;;;14.73;2.63;;;;;;;17.96;68.10;101605.72;5051827;28;20068;-82
2020/12/29 10:44:40;;;;;;;10.65;2.50;;;;;;;17.96;67.94;101611.03;5042842;28;20052;-82
2020/12/29 10:47:06;;;;;;;14.60;3.35;;;;;;;17.96;68.29;101613.72;5039023;28;20037;-81
2020/12/29 10:49:31;;;;;;;18.23;3.28;;;;;;;17.97;67.74;101607.50;5038127;28;20034;-82
2020/12/29 10:51:56;;;;;;;22.42;3.33;;;;;;;17.95;67.97;101602.13;5069278;28;20037;-83
2020/12/29 10:54:22;;;;;;;8.07;2.28;;;;;;;17.95;68.01;101603.91;5043397;28;20060;-78
2020/12/29 10:56:47;;;;;;;9.85;2.92;;;;;;;17.95;67.58;101601.25;5054765;28;20113;-81
2020/12/29 10:59:12;;;;;;;10.10;2.67;;;;;;;17.95;67.77;101606.59;5050094;28;20044;-82
2020/12/29 11:01:38;;;;;;;13.50;2.75;;;;;;;17.95;67.85;101607.47;5042606;28;20069;-77
2020/12/29 11:04:03;;;;;;;9.65;2.70;;;;;;;17.95;67.91;101607.47;5065685;28;20059;-79
2020/12/29 11:06:28;;;;;;;9.23;2.28;;;;;;;17.96;67.72;101616.38;5051520;28;20155;-79
2020/12/29 11:08:54;;;;;;;10.43;2.95;;;;;;;17.97;67.49;101608.38;5051385;28;20402;-76
2020/12/29 11:11:19;;;;;;;16.48;3.50;;;;;;;18.04;67.89;101603.91;5051930;28;20072;-77
2020/12/29 11:13:45;;;;;;;15.07;3.47;;;;;;;18.02;67.43;101608.38;5051267;28;20033;-78